sensor_id;sensor_type;location;lat;lon;timestamp;P1;durP1;ratioP1;P2;durP2;ratioP2
14736;SDS011;7459;53.590;10.062;2023-02-01T00:02:01;10.52;;;1.50;;
14736;SDS011;7459;53.590;10.062;2023-02-01T00:04:27;18.20;;;2.80;;
14736;SDS011;7459;53.590;10.062;2023-02-01T00:06:53;15.77;;;2.38;;
14736;SDS011;7459;53.590;10.062;2023-02-01T00:09:19;19.17;;;2.77;;
14736;SDS011;7459;53.590;10.062;2023-02-01T00:11:45;16.15;;;2.50;;
14736;SDS011;7459;53.590;10.062;2023-02-01T00:14:11;13.23;;;2.30;;
14736;SDS011;7459;53.590;10.062;2023-02-01T00:16:37;15.60;;;2.38;;
14736;SDS011;7459;53.590;10.062;2023-02-01T00:19:05;19.38;;;2.40;;
14736;SDS011;7459;53.590;10.062;2023-02-01T00:21:40;21.10;;;2.60;;
14736;SDS011;7459;53.590;10.062;2023-02-01T00:24:09;22.80;;;2.55;;
14736;SDS011;7459;53.590;10.062;2023-02-01T00:26:39;18.02;;;3.72;;
14736;SDS011;7459;53.590;10.062;2023-02-01T00:29:12;14.25;;;1.83;;
14736;SDS011;7459;53.590;10.062;2023-02-01T00:31:41;12.85;;;1.92;;
14736;SDS011;7459;53.590;10.062;2023-02-01T00:34:08;17.63;;;1.90;;
14736;SDS011;7459;53.590;10.062;2023-02-01T00:36:40;16.20;;;2.00;;
14736;SDS011;7459;53.590;10.062;2023-02-01T00:39:06;19.95;;;2.85;;
14736;SDS011;7459;53.590;10.062;2023-02-01T00:41:32;17.02;;;2.30;;
14736;SDS011;7459;53.590;10.062;2023-02-01T00:43:58;9.80;;;1.93;;
14736;SDS011;7459;53.590;10.062;2023-02-01T00:46:24;15.13;;;2.53;;
14736;SDS011;7459;53.590;10.062;2023-02-01T00:48:50;23.42;;;2.53;;
14736;SDS011;7459;53.590;10.062;2023-02-01T00:51:20;20.05;;;3.35;;
14736;SDS011;7459;53.590;10.062;2023-02-01T00:53:48;21.60;;;2.58;;
14736;SDS011;7459;53.590;10.062;2023-02-01T00:56:14;24.42;;;3.30;;
14736;SDS011;7459;53.590;10.062;2023-02-01T00:58:40;19.05;;;2.30;;
14736;SDS011;7459;53.590;10.062;2023-02-01T01:03:45;19.00;;;1.98;;
14736;SDS011;7459;53.590;10.062;2023-02-01T01:06:15;20.05;;;3.13;;
14736;SDS011;7459;53.590;10.062;2023-02-01T01:08:45;18.95;;;2.33;;
14736;SDS011;7459;53.590;10.062;2023-02-01T01:11:16;19.25;;;3.25;;
14736;SDS011;7459;53.590;10.062;2023-02-01T01:13:47;20.95;;;3.00;;
14736;SDS011;7459;53.590;10.062;2023-02-01T01:16:14;17.17;;;2.72;;
14736;SDS011;7459;53.590;10.062;2023-02-01T01:18:41;22.73;;;3.35;;
14736;SDS011;7459;53.590;10.062;2023-02-01T01:21:08;20.75;;;2.92;;
14736;SDS011;7459;53.590;10.062;2023-02-01T01:23:35;26.83;;;3.38;;
14736;SDS011;7459;53.590;10.062;2023-02-01T01:26:04;18.58;;;2.60;;
14736;SDS011;7459;53.590;10.062;2023-02-01T01:28:37;27.30;;;3.05;;
14736;SDS011;7459;53.590;10.062;2023-02-01T01:31:02;19.55;;;2.72;;
14736;SDS011;7459;53.590;10.062;2023-02-01T01:33:28;19.93;;;1.87;;
14736;SDS011;7459;53.590;10.062;2023-02-01T01:35:54;25.52;;;3.85;;
14736;SDS011;7459;53.590;10.062;2023-02-01T01:38:20;20.70;;;2.83;;
14736;SDS011;7459;53.590;10.062;2023-02-01T01:40:46;26.10;;;2.67;;
14736;SDS011;7459;53.590;10.062;2023-02-01T01:43:16;25.63;;;2.97;;
14736;SDS011;7459;53.590;10.062;2023-02-01T01:45:46;16.73;;;2.03;;
14736;SDS011;7459;53.590;10.062;2023-02-01T01:48:13;23.23;;;3.40;;
14736;SDS011;7459;53.590;10.062;2023-02-01T01:50:51;22.48;;;2.80;;
14736;SDS011;7459;53.590;10.062;2023-02-01T01:53:32;21.85;;;2.47;;
14736;SDS011;7459;53.590;10.062;2023-02-01T01:56:05;15.20;;;2.22;;
14736;SDS011;7459;53.590;10.062;2023-02-01T01:58:31;21.77;;;2.40;;
14736;SDS011;7459;53.590;10.062;2023-02-01T02:00:59;23.15;;;2.03;;
14736;SDS011;7459;53.590;10.062;2023-02-01T02:03:46;23.73;;;2.72;;
14736;SDS011;7459;53.590;10.062;2023-02-01T02:06:15;24.58;;;3.22;;
14736;SDS011;7459;53.590;10.062;2023-02-01T02:08:52;20.77;;;3.43;;
14736;SDS011;7459;53.590;10.062;2023-02-01T02:11:18;23.80;;;2.75;;
14736;SDS011;7459;53.590;10.062;2023-02-01T02:13:46;18.85;;;3.28;;
14736;SDS011;7459;53.590;10.062;2023-02-01T02:16:24;30.20;;;3.57;;
14736;SDS011;7459;53.590;10.062;2023-02-01T02:22:34;21.95;;;3.33;;
14736;SDS011;7459;53.590;10.062;2023-02-01T02:25:15;28.52;;;3.10;;
14736;SDS011;7459;53.590;10.062;2023-02-01T02:37:03;15.93;;;2.42;;
14736;SDS011;7459;53.590;10.062;2023-02-01T02:40:00;20.50;;;3.15;;
14736;SDS011;7459;53.590;10.062;2023-02-01T02:45:55;22.37;;;2.83;;
14736;SDS011;7459;53.590;10.062;2023-02-01T02:51:42;17.10;;;2.85;;
14736;SDS011;7459;53.590;10.062;2023-02-01T02:54:32;25.33;;;2.53;;
14736;SDS011;7459;53.590;10.062;2023-02-01T03:00:21;18.23;;;2.30;;
14736;SDS011;7459;53.590;10.062;2023-02-01T03:05:53;19.33;;;2.88;;
14736;SDS011;7459;53.590;10.062;2023-02-01T03:08:22;22.33;;;3.00;;
14736;SDS011;7459;53.590;10.062;2023-02-01T03:13:40;27.83;;;3.78;;
14736;SDS011;7459;53.590;10.062;2023-02-01T03:19:01;21.60;;;1.92;;
14736;SDS011;7459;53.590;10.062;2023-02-01T03:21:35;13.93;;;2.58;;
14736;SDS011;7459;53.590;10.062;2023-02-01T03:24:16;25.02;;;3.05;;
14736;SDS011;7459;53.590;10.062;2023-02-01T03:26:58;16.60;;;2.83;;
14736;SDS011;7459;53.590;10.062;2023-02-01T03:29:33;24.52;;;3.55;;
14736;SDS011;7459;53.590;10.062;2023-02-01T03:32:08;14.10;;;3.13;;
14736;SDS011;7459;53.590;10.062;2023-02-01T03:34:34;19.83;;;2.83;;
14736;SDS011;7459;53.590;10.062;2023-02-01T03:37:02;12.35;;;1.50;;
14736;SDS011;7459;53.590;10.062;2023-02-01T03:39:42;18.40;;;2.72;;
14736;SDS011;7459;53.590;10.062;2023-02-01T03:42:19;8.82;;;1.30;;
14736;SDS011;7459;53.590;10.062;2023-02-01T03:45:01;14.05;;;2.33;;
14736;SDS011;7459;53.590;10.062;2023-02-01T03:47:40;16.23;;;1.85;;
14736;SDS011;7459;53.590;10.062;2023-02-01T03:50:12;9.80;;;1.73;;
14736;SDS011;7459;53.590;10.062;2023-02-01T03:52:47;7.80;;;1.45;;
14736;SDS011;7459;53.590;10.062;2023-02-01T03:55:19;10.82;;;1.60;;
14736;SDS011;7459;53.590;10.062;2023-02-01T03:57:55;10.73;;;1.55;;
14736;SDS011;7459;53.590;10.062;2023-02-01T04:00:28;14.23;;;1.63;;
14736;SDS011;7459;53.590;10.062;2023-02-01T04:02:53;11.95;;;1.40;;
14736;SDS011;7459;53.590;10.062;2023-02-01T04:05:20;15.35;;;2.10;;
14736;SDS011;7459;53.590;10.062;2023-02-01T04:07:46;21.98;;;1.85;;
14736;SDS011;7459;53.590;10.062;2023-02-01T04:10:12;15.43;;;2.63;;
14736;SDS011;7459;53.590;10.062;2023-02-01T04:12:39;12.55;;;3.10;;
14736;SDS011;7459;53.590;10.062;2023-02-01T04:15:05;11.23;;;2.60;;
14736;SDS011;7459;53.590;10.062;2023-02-01T04:17:32;14.70;;;2.38;;
14736;SDS011;7459;53.590;10.062;2023-02-01T04:19:58;12.77;;;2.20;;
14736;SDS011;7459;53.590;10.062;2023-02-01T04:22:23;11.48;;;1.65;;
14736;SDS011;7459;53.590;10.062;2023-02-01T04:24:49;16.38;;;2.13;;
14736;SDS011;7459;53.590;10.062;2023-02-01T04:27:15;13.35;;;1.42;;
14736;SDS011;7459;53.590;10.062;2023-02-01T04:29:41;12.50;;;1.83;;
14736;SDS011;7459;53.590;10.062;2023-02-01T04:32:07;10.63;;;1.35;;
14736;SDS011;7459;53.590;10.062;2023-02-01T04:34:32;15.10;;;1.83;;
14736;SDS011;7459;53.590;10.062;2023-02-01T04:36:58;13.67;;;2.23;;
14736;SDS011;7459;53.590;10.062;2023-02-01T04:39:24;12.73;;;1.88;;
14736;SDS011;7459;53.590;10.062;2023-02-01T04:41:50;10.27;;;1.70;;
14736;SDS011;7459;53.590;10.062;2023-02-01T04:44:16;10.35;;;1.67;;
14736;SDS011;7459;53.590;10.062;2023-02-01T04:46:43;10.88;;;1.42;;
14736;SDS011;7459;53.590;10.062;2023-02-01T04:49:11;9.30;;;1.40;;
14736;SDS011;7459;53.590;10.062;2023-02-01T04:51:38;4.50;;;0.80;;
14736;SDS011;7459;53.590;10.062;2023-02-01T04:54:05;12.23;;;1.23;;
14736;SDS011;7459;53.590;10.062;2023-02-01T04:56:31;9.85;;;1.30;;
14736;SDS011;7459;53.590;10.062;2023-02-01T04:58:57;9.67;;;1.73;;
14736;SDS011;7459;53.590;10.062;2023-02-01T05:01:24;10.70;;;1.42;;
14736;SDS011;7459;53.590;10.062;2023-02-01T05:03:50;8.23;;;1.15;;
14736;SDS011;7459;53.590;10.062;2023-02-01T05:06:16;9.32;;;2.08;;
14736;SDS011;7459;53.590;10.062;2023-02-01T05:08:42;7.53;;;1.00;;
14736;SDS011;7459;53.590;10.062;2023-02-01T05:11:07;6.75;;;1.05;;
14736;SDS011;7459;53.590;10.062;2023-02-01T05:13:53;8.90;;;1.23;;
14736;SDS011;7459;53.590;10.062;2023-02-01T05:16:19;2.73;;;0.60;;
14736;SDS011;7459;53.590;10.062;2023-02-01T05:18:45;4.00;;;0.63;;
14736;SDS011;7459;53.590;10.062;2023-02-01T05:21:10;4.60;;;0.93;;
14736;SDS011;7459;53.590;10.062;2023-02-01T05:23:36;7.70;;;1.10;;
14736;SDS011;7459;53.590;10.062;2023-02-01T05:26:22;3.17;;;0.75;;
14736;SDS011;7459;53.590;10.062;2023-02-01T05:28:48;1.83;;;0.50;;
14736;SDS011;7459;53.590;10.062;2023-02-01T05:31:13;3.03;;;0.60;;
14736;SDS011;7459;53.590;10.062;2023-02-01T05:33:40;1.80;;;0.75;;
14736;SDS011;7459;53.590;10.062;2023-02-01T05:36:05;2.73;;;0.57;;
14736;SDS011;7459;53.590;10.062;2023-02-01T05:38:31;3.22;;;1.05;;
14736;SDS011;7459;53.590;10.062;2023-02-01T05:40:57;3.75;;;0.60;;
14736;SDS011;7459;53.590;10.062;2023-02-01T05:43:23;5.07;;;0.57;;
14736;SDS011;7459;53.590;10.062;2023-02-01T05:45:49;5.22;;;0.50;;
14736;SDS011;7459;53.590;10.062;2023-02-01T05:48:16;2.03;;;0.50;;
14736;SDS011;7459;53.590;10.062;2023-02-01T05:50:42;5.40;;;0.90;;
14736;SDS011;7459;53.590;10.062;2023-02-01T05:53:08;3.63;;;0.55;;
14736;SDS011;7459;53.590;10.062;2023-02-01T05:55:34;3.10;;;0.50;;
14736;SDS011;7459;53.590;10.062;2023-02-01T05:57:59;6.82;;;0.40;;
14736;SDS011;7459;53.590;10.062;2023-02-01T06:00:25;4.33;;;0.50;;
14736;SDS011;7459;53.590;10.062;2023-02-01T06:02:51;2.47;;;0.40;;
14736;SDS011;7459;53.590;10.062;2023-02-01T06:05:16;2.20;;;0.77;;
14736;SDS011;7459;53.590;10.062;2023-02-01T06:07:42;2.58;;;0.77;;
14736;SDS011;7459;53.590;10.062;2023-02-01T06:10:09;1.43;;;0.50;;
14736;SDS011;7459;53.590;10.062;2023-02-01T06:12:35;2.35;;;0.30;;
14736;SDS011;7459;53.590;10.062;2023-02-01T06:15:01;2.35;;;0.50;;
14736;SDS011;7459;53.590;10.062;2023-02-01T06:17:27;5.03;;;1.03;;
14736;SDS011;7459;53.590;10.062;2023-02-01T06:19:52;2.28;;;0.70;;
14736;SDS011;7459;53.590;10.062;2023-02-01T06:22:18;4.07;;;0.87;;
14736;SDS011;7459;53.590;10.062;2023-02-01T06:24:44;3.55;;;0.80;;
14736;SDS011;7459;53.590;10.062;2023-02-01T06:27:09;1.37;;;0.40;;
14736;SDS011;7459;53.590;10.062;2023-02-01T06:29:35;3.42;;;0.70;;
14736;SDS011;7459;53.590;10.062;2023-02-01T06:32:01;3.17;;;0.90;;
14736;SDS011;7459;53.590;10.062;2023-02-01T06:34:28;4.07;;;0.70;;
14736;SDS011;7459;53.590;10.062;2023-02-01T06:36:53;7.20;;;1.17;;
14736;SDS011;7459;53.590;10.062;2023-02-01T06:39:20;3.88;;;1.00;;
14736;SDS011;7459;53.590;10.062;2023-02-01T06:41:46;9.67;;;1.10;;
14736;SDS011;7459;53.590;10.062;2023-02-01T06:44:13;6.30;;;1.25;;
14736;SDS011;7459;53.590;10.062;2023-02-01T06:46:39;4.22;;;0.80;;
14736;SDS011;7459;53.590;10.062;2023-02-01T06:49:05;10.30;;;0.95;;
14736;SDS011;7459;53.590;10.062;2023-02-01T06:51:31;6.63;;;1.87;;
14736;SDS011;7459;53.590;10.062;2023-02-01T06:53:57;4.72;;;1.00;;
14736;SDS011;7459;53.590;10.062;2023-02-01T06:56:22;5.33;;;1.50;;
14736;SDS011;7459;53.590;10.062;2023-02-01T06:58:49;7.47;;;0.90;;
14736;SDS011;7459;53.590;10.062;2023-02-01T07:01:14;13.95;;;3.17;;
14736;SDS011;7459;53.590;10.062;2023-02-01T07:03:41;6.55;;;1.50;;
14736;SDS011;7459;53.590;10.062;2023-02-01T07:06:07;8.13;;;1.50;;
14736;SDS011;7459;53.590;10.062;2023-02-01T07:08:34;6.78;;;1.45;;
14736;SDS011;7459;53.590;10.062;2023-02-01T07:11:03;12.07;;;1.40;;
14736;SDS011;7459;53.590;10.062;2023-02-01T07:13:35;11.70;;;1.95;;
14736;SDS011;7459;53.590;10.062;2023-02-01T07:16:02;9.13;;;1.52;;
14736;SDS011;7459;53.590;10.062;2023-02-01T07:18:32;16.40;;;1.85;;
14736;SDS011;7459;53.590;10.062;2023-02-01T07:20:59;9.43;;;1.35;;
14736;SDS011;7459;53.590;10.062;2023-02-01T07:23:25;8.48;;;2.10;;
14736;SDS011;7459;53.590;10.062;2023-02-01T07:25:55;17.48;;;1.92;;
14736;SDS011;7459;53.590;10.062;2023-02-01T07:28:23;10.52;;;2.05;;
14736;SDS011;7459;53.590;10.062;2023-02-01T07:30:49;13.27;;;2.17;;
14736;SDS011;7459;53.590;10.062;2023-02-01T07:33:18;13.38;;;2.22;;
14736;SDS011;7459;53.590;10.062;2023-02-01T07:35:49;14.18;;;2.63;;
14736;SDS011;7459;53.590;10.062;2023-02-01T07:38:15;13.32;;;1.90;;
14736;SDS011;7459;53.590;10.062;2023-02-01T07:40:42;7.25;;;1.33;;
14736;SDS011;7459;53.590;10.062;2023-02-01T07:43:08;9.25;;;1.10;;
14736;SDS011;7459;53.590;10.062;2023-02-01T07:45:34;15.90;;;2.47;;
14736;SDS011;7459;53.590;10.062;2023-02-01T07:48:01;17.88;;;1.92;;
14736;SDS011;7459;53.590;10.062;2023-02-01T07:50:28;13.35;;;1.60;;
14736;SDS011;7459;53.590;10.062;2023-02-01T07:52:54;12.13;;;1.73;;
14736;SDS011;7459;53.590;10.062;2023-02-01T07:55:20;18.48;;;2.88;;
14736;SDS011;7459;53.590;10.062;2023-02-01T07:57:46;15.05;;;2.20;;
14736;SDS011;7459;53.590;10.062;2023-02-01T08:00:12;19.00;;;2.03;;
14736;SDS011;7459;53.590;10.062;2023-02-01T08:02:57;12.18;;;2.50;;
14736;SDS011;7459;53.590;10.062;2023-02-01T08:05:24;10.02;;;1.63;;
14736;SDS011;7459;53.590;10.062;2023-02-01T08:07:49;21.95;;;2.70;;
14736;SDS011;7459;53.590;10.062;2023-02-01T08:10:15;24.05;;;3.95;;
14736;SDS011;7459;53.590;10.062;2023-02-01T08:12:42;15.05;;;2.38;;
14736;SDS011;7459;53.590;10.062;2023-02-01T08:15:12;16.25;;;2.63;;
14736;SDS011;7459;53.590;10.062;2023-02-01T08:17:50;19.00;;;1.73;;
14736;SDS011;7459;53.590;10.062;2023-02-01T08:20:17;18.13;;;2.58;;
14736;SDS011;7459;53.590;10.062;2023-02-01T08:22:44;20.02;;;2.58;;
14736;SDS011;7459;53.590;10.062;2023-02-01T08:25:10;14.93;;;2.78;;
14736;SDS011;7459;53.590;10.062;2023-02-01T08:27:36;17.90;;;2.65;;
14736;SDS011;7459;53.590;10.062;2023-02-01T08:30:02;11.45;;;1.70;;
14736;SDS011;7459;53.590;10.062;2023-02-01T08:32:30;15.90;;;2.28;;
14736;SDS011;7459;53.590;10.062;2023-02-01T08:34:55;15.70;;;2.53;;
14736;SDS011;7459;53.590;10.062;2023-02-01T08:37:21;19.92;;;4.32;;
14736;SDS011;7459;53.590;10.062;2023-02-01T08:39:47;14.17;;;2.40;;
14736;SDS011;7459;53.590;10.062;2023-02-01T08:42:15;15.27;;;2.20;;
14736;SDS011;7459;53.590;10.062;2023-02-01T08:44:59;13.90;;;1.55;;
14736;SDS011;7459;53.590;10.062;2023-02-01T08:47:25;8.25;;;1.42;;
14736;SDS011;7459;53.590;10.062;2023-02-01T08:49:51;6.53;;;1.60;;
14736;SDS011;7459;53.590;10.062;2023-02-01T08:52:18;8.20;;;1.30;;
14736;SDS011;7459;53.590;10.062;2023-02-01T08:54:43;12.10;;;1.83;;
14736;SDS011;7459;53.590;10.062;2023-02-01T08:57:09;8.18;;;1.50;;
14736;SDS011;7459;53.590;10.062;2023-02-01T08:59:35;5.37;;;1.20;;
14736;SDS011;7459;53.590;10.062;2023-02-01T09:02:01;9.77;;;1.63;;
14736;SDS011;7459;53.590;10.062;2023-02-01T09:04:26;9.17;;;1.70;;
14736;SDS011;7459;53.590;10.062;2023-02-01T09:06:52;16.02;;;2.75;;
14736;SDS011;7459;53.590;10.062;2023-02-01T09:09:20;22.52;;;2.30;;
14736;SDS011;7459;53.590;10.062;2023-02-01T09:11:47;12.57;;;1.95;;
14736;SDS011;7459;53.590;10.062;2023-02-01T09:14:15;17.58;;;2.25;;
14736;SDS011;7459;53.590;10.062;2023-02-01T09:16:41;12.80;;;1.75;;
14736;SDS011;7459;53.590;10.062;2023-02-01T09:19:07;18.40;;;2.17;;
14736;SDS011;7459;53.590;10.062;2023-02-01T09:21:32;17.42;;;2.45;;
14736;SDS011;7459;53.590;10.062;2023-02-01T09:23:58;7.95;;;1.70;;
14736;SDS011;7459;53.590;10.062;2023-02-01T09:26:24;24.37;;;2.63;;
14736;SDS011;7459;53.590;10.062;2023-02-01T09:28:50;15.13;;;1.73;;
14736;SDS011;7459;53.590;10.062;2023-02-01T09:31:16;16.25;;;2.70;;
14736;SDS011;7459;53.590;10.062;2023-02-01T09:33:42;22.60;;;2.40;;
14736;SDS011;7459;53.590;10.062;2023-02-01T09:36:07;17.80;;;2.50;;
14736;SDS011;7459;53.590;10.062;2023-02-01T09:38:33;11.83;;;1.60;;
14736;SDS011;7459;53.590;10.062;2023-02-01T09:40:59;17.88;;;2.40;;
14736;SDS011;7459;53.590;10.062;2023-02-01T09:43:37;21.93;;;3.40;;
14736;SDS011;7459;53.590;10.062;2023-02-01T09:49:08;14.73;;;2.10;;
14736;SDS011;7459;53.590;10.062;2023-02-01T09:51:43;18.52;;;2.03;;
14736;SDS011;7459;53.590;10.062;2023-02-01T09:54:13;16.40;;;3.22;;
14736;SDS011;7459;53.590;10.062;2023-02-01T09:59:35;13.27;;;1.90;;
14736;SDS011;7459;53.590;10.062;2023-02-01T10:02:11;18.65;;;2.30;;
14736;SDS011;7459;53.590;10.062;2023-02-01T10:04:48;17.08;;;1.75;;
14736;SDS011;7459;53.590;10.062;2023-02-01T10:10:07;14.97;;;1.47;;
14736;SDS011;7459;53.590;10.062;2023-02-01T10:15:22;10.68;;;1.83;;
14736;SDS011;7459;53.590;10.062;2023-02-01T10:20:46;17.92;;;1.83;;
14736;SDS011;7459;53.590;10.062;2023-02-01T10:26:25;12.32;;;2.25;;
14736;SDS011;7459;53.590;10.062;2023-02-01T10:28:58;17.42;;;2.10;;
14736;SDS011;7459;53.590;10.062;2023-02-01T10:31:31;17.63;;;1.83;;
14736;SDS011;7459;53.590;10.062;2023-02-01T10:34:14;15.85;;;2.20;;
14736;SDS011;7459;53.590;10.062;2023-02-01T10:39:29;19.08;;;1.60;;
14736;SDS011;7459;53.590;10.062;2023-02-01T10:41:55;14.93;;;2.65;;
14736;SDS011;7459;53.590;10.062;2023-02-01T10:44:22;12.73;;;2.20;;
14736;SDS011;7459;53.590;10.062;2023-02-01T10:46:52;21.02;;;2.03;;
14736;SDS011;7459;53.590;10.062;2023-02-01T10:49:18;15.13;;;1.90;;
14736;SDS011;7459;53.590;10.062;2023-02-01T10:51:52;15.60;;;2.42;;
14736;SDS011;7459;53.590;10.062;2023-02-01T10:54:37;12.23;;;2.40;;
14736;SDS011;7459;53.590;10.062;2023-02-01T10:57:07;17.92;;;1.85;;
14736;SDS011;7459;53.590;10.062;2023-02-01T10:59:35;16.00;;;2.35;;
14736;SDS011;7459;53.590;10.062;2023-02-01T11:02:23;13.85;;;2.38;;
14736;SDS011;7459;53.590;10.062;2023-02-01T11:04:58;18.98;;;3.05;;
14736;SDS011;7459;53.590;10.062;2023-02-01T11:07:35;18.23;;;1.90;;
14736;SDS011;7459;53.590;10.062;2023-02-01T11:10:02;12.88;;;2.28;;
14736;SDS011;7459;53.590;10.062;2023-02-01T11:12:30;17.35;;;1.83;;
14736;SDS011;7459;53.590;10.062;2023-02-01T11:17:39;13.32;;;1.60;;
14736;SDS011;7459;53.590;10.062;2023-02-01T11:20:18;10.73;;;1.70;;
14736;SDS011;7459;53.590;10.062;2023-02-01T11:22:53;12.52;;;1.60;;
14736;SDS011;7459;53.590;10.062;2023-02-01T11:25:21;13.85;;;2.30;;
14736;SDS011;7459;53.590;10.062;2023-02-01T11:27:48;12.68;;;1.63;;
14736;SDS011;7459;53.590;10.062;2023-02-01T11:30:25;10.65;;;2.10;;
14736;SDS011;7459;53.590;10.062;2023-02-01T11:33:13;14.97;;;2.20;;
14736;SDS011;7459;53.590;10.062;2023-02-01T11:35:43;13.88;;;2.60;;
14736;SDS011;7459;53.590;10.062;2023-02-01T11:38:19;12.43;;;1.85;;
14736;SDS011;7459;53.590;10.062;2023-02-01T11:40:50;17.15;;;2.60;;
14736;SDS011;7459;53.590;10.062;2023-02-01T11:43:26;16.30;;;2.27;;
14736;SDS011;7459;53.590;10.062;2023-02-01T11:46:00;18.98;;;2.58;;
14736;SDS011;7459;53.590;10.062;2023-02-01T11:48:29;18.92;;;2.00;;
14736;SDS011;7459;53.590;10.062;2023-02-01T11:51:01;14.90;;;1.95;;
14736;SDS011;7459;53.590;10.062;2023-02-01T12:23:25;13.20;;;1.57;;
14736;SDS011;7459;53.590;10.062;2023-02-01T12:37:39;5.23;;;0.90;;
14736;SDS011;7459;53.590;10.062;2023-02-01T12:40:36;3.63;;;0.43;;
14736;SDS011;7459;53.590;10.062;2023-02-01T12:43:36;2.42;;;0.40;;
14736;SDS011;7459;53.590;10.062;2023-02-01T12:46:16;1.98;;;0.40;;
14736;SDS011;7459;53.590;10.062;2023-02-01T12:51:34;4.80;;;0.70;;
14736;SDS011;7459;53.590;10.062;2023-02-01T12:54:10;1.50;;;0.45;;
14736;SDS011;7459;53.590;10.062;2023-02-01T12:57:18;4.20;;;0.40;;
14736;SDS011;7459;53.590;10.062;2023-02-01T13:05:44;1.93;;;0.40;;
14736;SDS011;7459;53.590;10.062;2023-02-01T13:08:25;2.45;;;0.45;;
14736;SDS011;7459;53.590;10.062;2023-02-01T13:11:05;3.08;;;0.60;;
14736;SDS011;7459;53.590;10.062;2023-02-01T13:16:28;2.15;;;0.40;;
14736;SDS011;7459;53.590;10.062;2023-02-01T13:19:18;2.40;;;0.40;;
14736;SDS011;7459;53.590;10.062;2023-02-01T13:21:53;2.83;;;0.38;;
14736;SDS011;7459;53.590;10.062;2023-02-01T13:24:41;5.00;;;0.57;;
14736;SDS011;7459;53.590;10.062;2023-02-01T13:27:12;3.70;;;0.57;;
14736;SDS011;7459;53.590;10.062;2023-02-01T13:29:48;3.70;;;0.60;;
14736;SDS011;7459;53.590;10.062;2023-02-01T13:41:25;2.70;;;0.82;;
14736;SDS011;7459;53.590;10.062;2023-02-01T13:43:58;2.55;;;0.55;;
14736;SDS011;7459;53.590;10.062;2023-02-01T13:46:40;2.57;;;0.50;;
14736;SDS011;7459;53.590;10.062;2023-02-01T13:49:17;2.53;;;0.50;;
14736;SDS011;7459;53.590;10.062;2023-02-01T13:51:49;6.47;;;0.73;;
14736;SDS011;7459;53.590;10.062;2023-02-01T13:56:56;8.68;;;0.75;;
14736;SDS011;7459;53.590;10.062;2023-02-01T14:05:08;3.20;;;0.55;;
14736;SDS011;7459;53.590;10.062;2023-02-01T14:24:43;4.97;;;0.65;;
14736;SDS011;7459;53.590;10.062;2023-02-01T14:26:51;6.90;;;0.70;;
14736;SDS011;7459;53.590;10.062;2023-02-01T14:29:22;4.35;;;0.65;;
14736;SDS011;7459;53.590;10.062;2023-02-01T15:00:50;5.13;;;0.70;;
14736;SDS011;7459;53.590;10.062;2023-02-01T15:06:26;4.70;;;0.70;;
14736;SDS011;7459;53.590;10.062;2023-02-01T15:08:57;4.53;;;0.95;;
14736;SDS011;7459;53.590;10.062;2023-02-01T15:11:29;7.07;;;1.23;;
14736;SDS011;7459;53.590;10.062;2023-02-01T15:13:55;7.95;;;1.50;;
14736;SDS011;7459;53.590;10.062;2023-02-01T15:16:23;7.38;;;1.13;;
14736;SDS011;7459;53.590;10.062;2023-02-01T15:18:50;9.98;;;1.40;;
14736;SDS011;7459;53.590;10.062;2023-02-01T15:21:32;6.38;;;1.27;;
14736;SDS011;7459;53.590;10.062;2023-02-01T15:24:14;13.35;;;0.90;;
14736;SDS011;7459;53.590;10.062;2023-02-01T15:26:44;7.90;;;1.15;;
14736;SDS011;7459;53.590;10.062;2023-02-01T15:29:11;9.35;;;1.38;;
14736;SDS011;7459;53.590;10.062;2023-02-01T15:31:46;11.30;;;1.50;;
14736;SDS011;7459;53.590;10.062;2023-02-01T15:34:14;9.48;;;1.10;;
14736;SDS011;7459;53.590;10.062;2023-02-01T15:36:41;8.77;;;1.13;;
14736;SDS011;7459;53.590;10.062;2023-02-01T15:39:15;8.80;;;1.45;;
14736;SDS011;7459;53.590;10.062;2023-02-01T15:41:48;9.05;;;1.15;;
14736;SDS011;7459;53.590;10.062;2023-02-01T15:44:27;7.85;;;1.23;;
14736;SDS011;7459;53.590;10.062;2023-02-01T15:47:08;9.57;;;1.15;;
14736;SDS011;7459;53.590;10.062;2023-02-01T15:49:42;11.63;;;1.40;;
14736;SDS011;7459;53.590;10.062;2023-02-01T15:52:16;13.23;;;1.30;;
14736;SDS011;7459;53.590;10.062;2023-02-01T15:55:06;12.00;;;1.55;;
14736;SDS011;7459;53.590;10.062;2023-02-01T15:57:43;9.93;;;1.65;;
14736;SDS011;7459;53.590;10.062;2023-02-01T16:03:00;11.73;;;0.90;;
14736;SDS011;7459;53.590;10.062;2023-02-01T16:05:31;17.98;;;2.13;;
14736;SDS011;7459;53.590;10.062;2023-02-01T16:08:06;17.35;;;1.30;;
14736;SDS011;7459;53.590;10.062;2023-02-01T16:10:41;12.10;;;1.17;;
14736;SDS011;7459;53.590;10.062;2023-02-01T16:13:11;6.63;;;1.50;;
14736;SDS011;7459;53.590;10.062;2023-02-01T16:15:38;13.70;;;2.05;;
14736;SDS011;7459;53.590;10.062;2023-02-01T16:18:05;14.45;;;1.95;;
14736;SDS011;7459;53.590;10.062;2023-02-01T16:20:33;12.65;;;1.58;;
14736;SDS011;7459;53.590;10.062;2023-02-01T16:23:00;8.88;;;1.38;;
14736;SDS011;7459;53.590;10.062;2023-02-01T16:25:27;11.07;;;1.77;;
14736;SDS011;7459;53.590;10.062;2023-02-01T16:27:53;14.23;;;1.70;;
14736;SDS011;7459;53.590;10.062;2023-02-01T16:30:19;13.88;;;2.38;;
14736;SDS011;7459;53.590;10.062;2023-02-01T16:32:54;11.90;;;1.77;;
14736;SDS011;7459;53.590;10.062;2023-02-01T16:35:23;13.25;;;1.42;;
14736;SDS011;7459;53.590;10.062;2023-02-01T16:38:00;10.05;;;1.50;;
14736;SDS011;7459;53.590;10.062;2023-02-01T16:40:47;19.73;;;2.05;;
14736;SDS011;7459;53.590;10.062;2023-02-01T16:43:15;18.75;;;1.95;;
14736;SDS011;7459;53.590;10.062;2023-02-01T16:45:46;12.00;;;2.17;;
14736;SDS011;7459;53.590;10.062;2023-02-01T16:48:27;17.70;;;2.65;;
14736;SDS011;7459;53.590;10.062;2023-02-01T16:50:59;14.52;;;1.92;;
14736;SDS011;7459;53.590;10.062;2023-02-01T16:53:30;14.38;;;1.98;;
14736;SDS011;7459;53.590;10.062;2023-02-01T16:55:56;14.27;;;2.97;;
14736;SDS011;7459;53.590;10.062;2023-02-01T16:58:23;10.32;;;2.00;;
14736;SDS011;7459;53.590;10.062;2023-02-01T17:00:50;22.35;;;2.42;;
14736;SDS011;7459;53.590;10.062;2023-02-01T17:03:17;15.30;;;2.72;;
14736;SDS011;7459;53.590;10.062;2023-02-01T17:05:49;21.20;;;3.15;;
14736;SDS011;7459;53.590;10.062;2023-02-01T17:08:38;16.58;;;2.25;;
14736;SDS011;7459;53.590;10.062;2023-02-01T17:11:06;22.85;;;3.38;;
14736;SDS011;7459;53.590;10.062;2023-02-01T17:13:33;17.55;;;3.50;;
14736;SDS011;7459;53.590;10.062;2023-02-01T17:16:03;19.35;;;2.28;;
14736;SDS011;7459;53.590;10.062;2023-02-01T17:18:37;15.15;;;2.35;;
14736;SDS011;7459;53.590;10.062;2023-02-01T17:21:03;19.63;;;2.05;;
14736;SDS011;7459;53.590;10.062;2023-02-01T17:23:30;22.63;;;2.92;;
14736;SDS011;7459;53.590;10.062;2023-02-01T17:25:56;19.17;;;2.40;;
14736;SDS011;7459;53.590;10.062;2023-02-01T17:28:23;24.38;;;3.40;;
14736;SDS011;7459;53.590;10.062;2023-02-01T17:30:49;20.60;;;2.65;;
14736;SDS011;7459;53.590;10.062;2023-02-01T17:33:17;18.88;;;2.67;;
14736;SDS011;7459;53.590;10.062;2023-02-01T17:35:51;15.63;;;1.98;;
14736;SDS011;7459;53.590;10.062;2023-02-01T17:38:20;17.60;;;3.15;;
14736;SDS011;7459;53.590;10.062;2023-02-01T17:40:46;17.88;;;3.30;;
14736;SDS011;7459;53.590;10.062;2023-02-01T17:43:15;15.80;;;2.15;;
14736;SDS011;7459;53.590;10.062;2023-02-01T17:45:46;27.63;;;3.10;;
14736;SDS011;7459;53.590;10.062;2023-02-01T17:48:17;14.00;;;2.70;;
14736;SDS011;7459;53.590;10.062;2023-02-01T17:50:45;15.93;;;2.28;;
14736;SDS011;7459;53.590;10.062;2023-02-01T17:53:14;9.15;;;1.75;;
14736;SDS011;7459;53.590;10.062;2023-02-01T17:55:41;18.05;;;2.38;;